KMYF/MYF METAR and TAF weather

Enter ICAO airport designator
Station Type Date Time Source
KMYF METAR 2022/12/10 01:53 UTC NOAA

KMYF 100153Z 33004KT 10SM CLR 12/08 A3010 RMK AO2 SLP191 T01220083


Station Type Date Time Source
KMYF Decoded METAR 2022/12/10 01:53 UTC NOAA

SAN DIEGO MONTGOMERY FIELD, CA, United States (KMYF) 32-49N 117-08W 136M
Dec 09, 2022 - 08:53 PM EST / 2022.12.10 0153 UTC
Wind: from the NNW (330 degrees) at 5 MPH (4 KT):0
Visibility: 10 mile(s):0
Sky conditions: clear
Temperature: 54.0 F (12.2 C)
Dew Point: 46.9 F (8.3 C)
Relative Humidity: 77%
Pressure (altimeter): 30.1 in. Hg (1019 hPa)
ob: KMYF 100153Z 33004KT 10SM CLR 12/08 A3010 RMK AO2 SLP191 T01220083
cycle: 2

Station Type Date Time Source
KMYF TAF UTC NOAA

Error!

Example: see airport list